createdAt,value
2018-05-17T00:01:08.876Z,16.21
2018-05-17T00:03:36.297Z,16.18
2018-05-17T00:06:03.703Z,16.10
2018-05-17T00:08:31.117Z,15.94
2018-05-17T00:10:58.524Z,15.81
2018-05-17T00:13:25.941Z,15.76
2018-05-17T00:15:53.351Z,15.76
2018-05-17T00:18:20.778Z,15.68
2018-05-17T00:20:48.205Z,15.62
2018-05-17T00:23:15.621Z,15.53
2018-05-17T00:25:43.049Z,15.50
2018-05-17T00:28:10.476Z,15.43
2018-05-17T00:30:37.891Z,15.32
2018-05-17T00:33:05.307Z,15.31
2018-05-17T00:35:32.716Z,15.21
2018-05-17T00:38:00.141Z,15.07
2018-05-17T00:40:27.553Z,15.03
2018-05-17T00:42:54.973Z,15.01
2018-05-17T00:45:22.380Z,15.10
2018-05-17T00:47:49.802Z,15.08
2018-05-17T00:50:17.208Z,14.98
2018-05-17T00:52:44.633Z,14.92
2018-05-17T00:55:12.040Z,14.86
2018-05-17T00:57:39.465Z,14.88
2018-05-17T01:00:06.888Z,14.92
2018-05-17T01:02:34.331Z,15.00
2018-05-17T01:05:01.741Z,15.01
2018-05-17T01:07:29.153Z,15.04
2018-05-17T01:09:56.577Z,15.07
2018-05-17T01:12:24.017Z,15.09
2018-05-17T01:14:51.435Z,15.10
2018-05-17T01:17:18.837Z,15.10
2018-05-17T01:19:46.256Z,15.09
2018-05-17T01:22:13.703Z,14.99
2018-05-17T01:24:41.117Z,14.98
2018-05-17T01:27:08.529Z,15.03
2018-05-17T01:29:35.953Z,15.08
2018-05-17T01:32:03.368Z,15.02
2018-05-17T01:34:30.789Z,14.92
2018-05-17T01:37:10.102Z,14.91
2018-05-17T01:39:37.512Z,14.83
2018-05-17T01:42:04.966Z,14.79
2018-05-17T01:44:32.349Z,14.75
2018-05-17T01:46:59.762Z,14.70
2018-05-17T01:49:27.182Z,14.69
2018-05-17T01:51:54.606Z,14.71
2018-05-17T01:54:22.040Z,14.69
2018-05-17T01:56:49.454Z,14.57
2018-05-17T01:59:16.867Z,14.46
2018-05-17T02:01:44.279Z,14.37
2018-05-17T02:04:11.696Z,14.34
2018-05-17T02:06:39.108Z,14.38
2018-05-17T02:09:06.528Z,14.33
2018-05-17T02:11:33.941Z,14.34
2018-05-17T02:14:01.366Z,14.37
2018-05-17T02:16:28.804Z,14.36
2018-05-17T02:18:56.200Z,14.37
2018-05-17T02:21:23.628Z,14.36
2018-05-17T02:23:51.038Z,14.37
2018-05-17T02:26:18.485Z,14.37
2018-05-17T02:28:45.901Z,14.40
2018-05-17T02:31:13.328Z,14.38
2018-05-17T02:33:40.753Z,14.34
2018-05-17T02:36:08.166Z,14.31
2018-05-17T02:38:35.576Z,14.41
2018-05-17T02:41:02.998Z,14.41
2018-05-17T02:43:30.408Z,14.47
2018-05-17T02:45:57.828Z,14.44
2018-05-17T02:48:25.271Z,14.47
2018-05-17T02:50:52.718Z,14.57
2018-05-17T02:53:20.121Z,14.66
2018-05-17T02:55:47.565Z,14.70
2018-05-17T02:58:14.992Z,14.77
2018-05-17T03:00:42.406Z,14.71
2018-05-17T03:03:09.812Z,14.72
2018-05-17T03:05:37.246Z,14.69
2018-05-17T03:08:04.653Z,14.65
2018-05-17T03:10:32.075Z,14.61
2018-05-17T03:12:59.488Z,14.60
2018-05-17T03:15:26.908Z,14.59
2018-05-17T03:17:54.332Z,14.48
2018-05-17T03:20:21.748Z,14.45
2018-05-17T03:22:49.176Z,14.47
2018-05-17T03:25:16.611Z,14.41
2018-05-17T03:27:44.020Z,14.31
2018-05-17T03:30:11.453Z,14.28
2018-05-17T03:32:38.862Z,14.25
2018-05-17T03:35:06.294Z,14.25
2018-05-17T03:37:33.712Z,14.21
2018-05-17T03:40:01.133Z,14.23
2018-05-17T03:42:28.549Z,14.25
2018-05-17T03:44:55.972Z,14.26
2018-05-17T03:47:23.384Z,14.29
2018-05-17T03:49:50.802Z,14.18
2018-05-17T03:52:18.221Z,14.07
2018-05-17T03:54:45.652Z,14.00
2018-05-17T03:57:13.065Z,13.99
2018-05-17T03:59:40.476Z,13.97
2018-05-17T04:02:19.789Z,13.93
2018-05-17T04:04:58.937Z,13.92
2018-05-17T04:07:26.345Z,13.83
2018-05-17T04:09:53.772Z,13.75
2018-05-17T04:12:21.193Z,13.67
2018-05-17T04:14:48.648Z,13.65
2018-05-17T04:17:16.067Z,13.59
2018-05-17T04:19:43.496Z,13.62
2018-05-17T04:22:10.913Z,13.71
2018-05-17T04:24:38.328Z,13.67
2018-05-17T04:27:05.759Z,13.70
2018-05-17T04:29:33.172Z,13.66
2018-05-17T04:32:00.600Z,13.65
2018-05-17T04:34:28.009Z,13.68
2018-05-17T04:36:55.425Z,13.58
2018-05-17T04:39:22.838Z,13.56
2018-05-17T04:41:50.254Z,13.57
2018-05-17T04:44:17.667Z,13.50
2018-05-17T04:46:45.089Z,13.44
2018-05-17T04:49:12.530Z,13.42
2018-05-17T04:51:39.953Z,13.30
2018-05-17T04:54:07.380Z,13.24
2018-05-17T04:56:34.796Z,13.18
2018-05-17T04:59:02.218Z,13.19
2018-05-17T05:01:29.641Z,13.21
2018-05-17T05:03:57.052Z,13.20
2018-05-17T05:06:24.482Z,13.19
2018-05-17T05:08:51.892Z,13.20
2018-05-17T05:11:19.308Z,13.24
2018-05-17T05:13:46.723Z,13.29
2018-05-17T05:16:14.168Z,13.35
2018-05-17T05:18:41.580Z,13.41
2018-05-17T05:21:09.004Z,13.52
2018-05-17T05:23:36.409Z,13.60
2018-05-17T05:26:03.823Z,13.70
2018-05-17T05:28:31.252Z,13.80
2018-05-17T05:30:58.667Z,13.88
2018-05-17T05:33:26.085Z,13.94
2018-05-17T05:35:53.497Z,14.00
2018-05-17T05:38:20.914Z,14.06
2018-05-17T05:40:48.341Z,14.07
2018-05-17T05:43:15.757Z,14.07
2018-05-17T05:45:43.181Z,14.13
2018-05-17T05:48:10.592Z,14.07
2018-05-17T05:50:38.012Z,14.05
2018-05-17T05:53:05.426Z,13.98
2018-05-17T05:55:32.861Z,13.98
2018-05-17T05:58:00.278Z,14.00
2018-05-17T06:00:27.700Z,14.01
2018-05-17T06:02:55.123Z,14.04
2018-05-17T06:05:22.536Z,14.11
2018-05-17T06:07:49.953Z,14.21
2018-05-17T06:10:17.376Z,14.33
2018-05-17T06:12:44.837Z,14.41
2018-05-17T06:15:12.252Z,14.45
2018-05-17T06:17:39.671Z,14.49
2018-05-17T06:20:07.093Z,14.44
2018-05-17T06:22:34.508Z,14.50
2018-05-17T06:25:01.925Z,14.58
2018-05-17T06:27:29.354Z,14.65
2018-05-17T06:29:56.759Z,14.73
2018-05-17T06:32:24.176Z,14.78
2018-05-17T06:34:51.596Z,14.85
2018-05-17T06:37:19.028Z,14.91
2018-05-17T06:39:46.433Z,15.00
2018-05-17T06:44:47.576Z,15.15
2018-05-17T06:47:15.001Z,15.19
2018-05-17T06:49:42.432Z,15.17
2018-05-17T06:52:09.859Z,15.06
2018-05-17T06:54:37.271Z,15.03
2018-05-17T06:57:04.700Z,15.04
2018-05-17T06:59:32.109Z,15.05
2018-05-17T07:01:59.524Z,15.02
2018-05-17T07:04:26.941Z,15.02
2018-05-17T07:06:54.357Z,15.13
2018-05-17T07:09:21.782Z,15.19
2018-05-17T07:11:49.201Z,15.23
2018-05-17T07:14:16.620Z,15.29
2018-05-17T07:16:44.041Z,15.40
2018-05-17T07:19:11.456Z,15.50
2018-05-17T07:21:38.884Z,15.62
2018-05-17T07:24:06.346Z,15.69
2018-05-17T07:26:33.729Z,15.70
2018-05-17T07:29:01.140Z,15.63
2018-05-17T07:31:28.683Z,15.68
2018-05-17T07:33:56.001Z,15.82
2018-05-17T07:36:23.449Z,15.75
2018-05-17T07:38:50.852Z,15.77
2018-05-17T07:41:18.261Z,15.82
2018-05-17T07:43:45.673Z,15.85
2018-05-17T07:46:13.092Z,15.91
2018-05-17T07:48:40.504Z,15.96
2018-05-17T07:51:07.914Z,16.11
2018-05-17T07:53:35.341Z,16.22
2018-05-17T07:56:02.753Z,16.21
2018-05-17T07:58:30.172Z,16.30
2018-05-17T08:00:57.589Z,16.26
2018-05-17T08:03:25.004Z,16.30
2018-05-17T08:05:52.432Z,16.24
2018-05-17T08:08:19.896Z,16.06
2018-05-17T08:10:47.308Z,15.96
2018-05-17T08:13:15.069Z,16.02
2018-05-17T08:15:42.475Z,16.15
2018-05-17T08:18:09.889Z,16.02
2018-05-17T08:20:37.301Z,15.96
2018-05-17T08:23:04.726Z,16.05
2018-05-17T08:25:32.130Z,16.10
2018-05-17T08:27:59.549Z,16.01
2018-05-17T08:30:26.961Z,16.04
2018-05-17T08:32:54.442Z,16.11
2018-05-17T08:35:21.793Z,16.10
2018-05-17T08:37:49.206Z,16.16
2018-05-17T08:40:16.624Z,16.26
2018-05-17T08:42:44.169Z,16.53
2018-05-17T08:45:11.509Z,16.55
2018-05-17T08:47:38.930Z,16.53
2018-05-17T08:50:06.341Z,16.56
2018-05-17T08:52:33.844Z,16.52
2018-05-17T08:55:01.193Z,16.48
2018-05-17T08:57:28.637Z,16.47
2018-05-17T08:59:56.044Z,16.68
2018-05-17T09:02:23.468Z,16.92
2018-05-17T09:04:50.880Z,17.02
2018-05-17T09:07:18.301Z,17.06
2018-05-17T09:09:45.722Z,17.15
2018-05-17T09:12:13.149Z,17.20
2018-05-17T09:14:40.565Z,17.22
2018-05-17T09:17:07.976Z,17.18
2018-05-17T09:19:35.400Z,17.21
2018-05-17T09:22:02.806Z,17.31
2018-05-17T09:24:30.264Z,17.40
2018-05-17T09:26:57.668Z,17.41
2018-05-17T09:29:25.116Z,17.59
2018-05-17T09:31:52.536Z,17.69
2018-05-17T09:34:19.950Z,17.68
2018-05-17T09:36:47.369Z,17.68
2018-05-17T09:39:14.792Z,17.63
2018-05-17T09:41:42.197Z,17.47
2018-05-17T09:44:09.616Z,17.34
2018-05-17T09:46:37.021Z,17.25
2018-05-17T09:49:04.449Z,17.17
2018-05-17T09:51:31.864Z,17.18
2018-05-17T09:53:59.291Z,17.28
2018-05-17T09:56:26.709Z,17.36
2018-05-17T09:58:54.124Z,17.28
2018-05-17T10:01:21.539Z,17.27
2018-05-17T10:03:48.958Z,17.26
2018-05-17T10:06:16.368Z,17.18
2018-05-17T10:08:43.809Z,17.15
2018-05-17T10:11:11.252Z,17.09
2018-05-17T10:13:38.660Z,17.28
2018-05-17T10:16:06.081Z,17.49
2018-05-17T10:18:33.505Z,17.55
2018-05-17T10:21:00.920Z,17.60
2018-05-17T10:23:28.349Z,17.67
2018-05-17T10:25:55.769Z,17.67
2018-05-17T10:28:23.186Z,17.59
2018-05-17T10:30:50.605Z,17.33
2018-05-17T10:33:18.076Z,17.28
2018-05-17T10:35:45.484Z,17.40
2018-05-17T10:38:12.917Z,17.32
2018-05-17T10:40:40.340Z,17.39
2018-05-17T10:43:07.768Z,17.51
2018-05-17T10:45:35.205Z,17.54
2018-05-17T10:48:02.651Z,17.65
2018-05-17T10:50:30.051Z,17.80
2018-05-17T10:52:57.478Z,17.91
2018-05-17T10:55:24.884Z,17.76
2018-05-17T10:57:52.296Z,17.97
2018-05-17T11:00:19.732Z,18.19
2018-05-17T11:02:47.184Z,18.19
2018-05-17T11:05:14.637Z,18.34
2018-05-17T11:07:42.042Z,18.61
2018-05-17T11:10:09.461Z,18.98
2018-05-17T11:12:36.879Z,19.12
2018-05-17T11:15:04.296Z,19.16
2018-05-17T11:17:31.711Z,19.08
2018-05-17T11:19:59.142Z,19.01
2018-05-17T11:22:26.548Z,18.92
2018-05-17T11:24:53.970Z,18.96
2018-05-17T11:27:21.372Z,18.88
2018-05-17T11:29:48.792Z,19.10
2018-05-17T11:32:16.212Z,19.34
2018-05-17T11:34:43.633Z,19.42
2018-05-17T11:37:11.061Z,19.28
2018-05-17T11:39:38.484Z,19.04
2018-05-17T11:42:05.901Z,18.90
2018-05-17T11:44:33.324Z,18.70
2018-05-17T11:47:00.744Z,18.47
2018-05-17T11:49:28.176Z,18.34
2018-05-17T11:51:55.593Z,18.25
2018-05-17T11:54:23.005Z,18.22
2018-05-17T11:56:50.437Z,18.20
2018-05-17T11:59:17.855Z,18.15
2018-05-17T12:01:45.268Z,18.10
2018-05-17T12:04:12.700Z,18.02
2018-05-17T12:06:40.112Z,18.00
2018-05-17T12:09:07.563Z,17.85
2018-05-17T12:11:34.960Z,17.75
2018-05-17T12:14:02.376Z,17.79
2018-05-17T12:16:29.795Z,17.85
2018-05-17T12:18:57.239Z,17.67
2018-05-17T12:21:24.638Z,17.47
2018-05-17T12:23:52.061Z,17.53
2018-05-17T12:26:19.484Z,17.60
2018-05-17T12:28:46.891Z,17.48
2018-05-17T12:31:14.320Z,17.43
2018-05-17T12:33:41.738Z,17.41
2018-05-17T12:36:09.165Z,17.41
2018-05-17T12:38:36.583Z,17.32
2018-05-17T12:41:04.003Z,17.29
2018-05-17T12:43:31.424Z,17.37
2018-05-17T12:45:58.908Z,17.49
2018-05-17T12:48:26.253Z,17.51
2018-05-17T12:50:53.685Z,17.43
2018-05-17T12:53:21.093Z,17.36
2018-05-17T12:55:48.512Z,17.38
2018-05-17T12:58:15.921Z,17.30
2018-05-17T13:00:43.333Z,17.15
2018-05-17T13:03:10.757Z,17.05
2018-05-17T13:05:38.169Z,16.81
2018-05-17T13:08:05.585Z,16.80
2018-05-17T13:10:33.017Z,16.87
2018-05-17T13:13:00.525Z,16.92
2018-05-17T13:15:27.861Z,16.90
2018-05-17T13:17:55.280Z,16.92
2018-05-17T13:20:22.721Z,16.96
2018-05-17T13:22:50.137Z,16.83
2018-05-17T13:25:17.559Z,16.76
2018-05-17T13:27:44.974Z,16.84
2018-05-17T13:30:12.399Z,16.98
2018-05-17T13:32:39.801Z,16.95
2018-05-17T13:35:07.228Z,16.78
2018-05-17T13:37:34.648Z,16.67
2018-05-17T13:40:02.060Z,16.59
2018-05-17T13:42:29.464Z,16.66
2018-05-17T13:44:56.891Z,16.80
2018-05-17T13:47:24.308Z,16.88
2018-05-17T13:49:51.731Z,16.84
2018-05-17T13:52:19.151Z,16.74
2018-05-17T13:54:46.576Z,16.74
2018-05-17T13:57:13.980Z,16.82
2018-05-17T13:59:41.395Z,16.82
2018-05-17T14:02:08.813Z,16.86
2018-05-17T14:04:36.224Z,16.80
2018-05-17T14:07:03.648Z,16.76
2018-05-17T14:09:31.060Z,16.68
2018-05-17T14:11:58.489Z,16.58
2018-05-17T14:14:25.901Z,16.56
2018-05-17T14:16:53.323Z,16.51
2018-05-17T14:19:20.747Z,16.53
2018-05-17T14:21:48.169Z,16.52
2018-05-17T14:24:15.577Z,16.41
2018-05-17T14:26:43.001Z,16.35
2018-05-17T14:29:10.409Z,16.31
2018-05-17T14:31:37.865Z,16.24
2018-05-17T14:34:05.249Z,16.21
2018-05-17T14:36:32.668Z,16.21
2018-05-17T14:39:00.089Z,16.22
2018-05-17T14:41:27.508Z,16.20
2018-05-17T14:43:54.916Z,16.24
2018-05-17T14:46:22.332Z,16.31
2018-05-17T14:48:49.740Z,16.30
2018-05-17T14:51:17.166Z,16.21
2018-05-17T14:53:44.589Z,16.20
2018-05-17T14:56:12.004Z,16.24
2018-05-17T14:58:39.448Z,16.24
2018-05-17T15:01:06.878Z,16.26
2018-05-17T15:03:34.280Z,16.23
2018-05-17T15:06:01.704Z,16.17
2018-05-17T15:08:29.241Z,16.14
2018-05-17T15:10:56.549Z,16.11
2018-05-17T15:13:23.959Z,16.01
2018-05-17T15:15:51.392Z,15.92
2018-05-17T15:18:18.813Z,15.88
2018-05-17T15:20:46.226Z,15.89
2018-05-17T15:23:13.641Z,15.94
2018-05-17T15:25:41.058Z,15.91
2018-05-17T15:28:08.474Z,15.88
2018-05-17T15:30:35.883Z,15.80
2018-05-17T15:33:03.408Z,15.80
2018-05-17T15:35:30.815Z,15.68
2018-05-17T15:37:58.314Z,15.64
2018-05-17T15:40:25.726Z,15.64
2018-05-17T15:42:53.144Z,15.73
2018-05-17T15:45:20.577Z,15.66
2018-05-17T15:47:48.140Z,15.59
2018-05-17T15:50:15.595Z,15.51
2018-05-17T15:52:43.017Z,15.52
2018-05-17T15:55:10.424Z,15.48
2018-05-17T15:57:37.845Z,15.58
2018-05-17T16:00:05.258Z,15.68
2018-05-17T16:02:32.701Z,15.68
2018-05-17T16:05:00.108Z,15.60
2018-05-17T16:07:27.536Z,15.57
2018-05-17T16:09:54.972Z,15.58
2018-05-17T16:12:22.384Z,15.53
2018-05-17T16:14:49.819Z,15.48
2018-05-17T16:17:17.220Z,15.48
2018-05-17T16:19:44.632Z,15.47
2018-05-17T16:22:12.044Z,15.37
2018-05-17T16:24:39.460Z,15.32
2018-05-17T16:27:06.880Z,15.31
2018-05-17T16:29:34.292Z,15.36
2018-05-17T16:32:01.707Z,15.37
2018-05-17T16:34:29.112Z,15.44
2018-05-17T16:36:56.537Z,15.50
2018-05-17T16:39:23.945Z,15.53
2018-05-17T16:41:51.364Z,15.51
2018-05-17T16:44:18.783Z,15.47
2018-05-17T16:46:46.200Z,15.45
2018-05-17T16:49:13.612Z,15.46
2018-05-17T16:51:41.041Z,15.44
2018-05-17T16:54:08.510Z,15.45
2018-05-17T16:56:35.860Z,15.48
2018-05-17T16:59:03.280Z,15.54
2018-05-17T17:01:30.691Z,15.49
2018-05-17T17:03:58.112Z,15.49
2018-05-17T17:06:25.516Z,15.43
2018-05-17T17:08:52.949Z,15.39
2018-05-17T17:11:20.362Z,15.28
2018-05-17T17:13:47.803Z,15.22
2018-05-17T17:16:15.361Z,15.18
2018-05-17T17:18:42.913Z,15.19
2018-05-17T17:21:10.355Z,15.19
2018-05-17T17:23:37.800Z,15.19
2018-05-17T17:26:05.202Z,15.24
2018-05-17T17:28:33.717Z,15.20
2018-05-17T17:31:01.427Z,15.18
2018-05-17T17:33:28.847Z,15.07
2018-05-17T17:35:56.313Z,15.03
2018-05-17T17:38:23.834Z,15.03
2018-05-17T17:40:51.240Z,15.02
2018-05-17T17:43:18.828Z,15.03
2018-05-17T17:45:46.228Z,14.92
2018-05-17T17:48:13.656Z,14.92
2018-05-17T17:50:41.068Z,14.90
2018-05-17T17:53:08.675Z,14.96
2018-05-17T17:55:36.089Z,14.92
2018-05-17T17:58:03.506Z,14.83
2018-05-17T18:00:30.924Z,14.73
2018-05-17T18:02:58.348Z,14.71
2018-05-17T18:05:25.764Z,14.73
2018-05-17T18:07:53.175Z,14.72
2018-05-17T18:10:20.587Z,14.63
2018-05-17T18:12:47.999Z,14.60
2018-05-17T18:15:15.416Z,14.62
2018-05-17T18:17:43.649Z,14.62
2018-05-17T18:20:11.066Z,14.59
2018-05-17T18:22:38.497Z,14.61
2018-05-17T18:25:05.909Z,14.60
2018-05-17T18:27:33.328Z,14.59
2018-05-17T18:30:00.740Z,14.56
2018-05-17T18:32:28.169Z,14.53
2018-05-17T18:34:55.571Z,14.57
2018-05-17T18:37:22.986Z,14.51
2018-05-17T18:39:50.431Z,14.48
2018-05-17T18:42:17.844Z,14.53
2018-05-17T18:44:45.326Z,14.51
2018-05-17T18:47:12.683Z,14.49
2018-05-17T18:49:40.107Z,14.57
2018-05-17T18:52:07.540Z,14.63
2018-05-17T18:54:35.008Z,14.58
2018-05-17T18:57:02.433Z,14.54
2018-05-17T18:59:29.802Z,14.50
2018-05-17T19:01:57.333Z,14.47
2018-05-17T19:04:24.642Z,14.51
2018-05-17T19:06:52.059Z,14.55
2018-05-17T19:09:19.553Z,14.56
2018-05-17T19:11:46.964Z,14.52
2018-05-17T19:14:14.441Z,14.52
2018-05-17T19:16:41.880Z,14.54
2018-05-17T19:19:09.312Z,14.57
2018-05-17T19:21:38.777Z,14.57
2018-05-17T19:24:06.360Z,14.59
2018-05-17T19:26:33.801Z,14.60
2018-05-17T19:29:01.650Z,14.55
2018-05-17T19:31:29.243Z,14.57
2018-05-17T19:33:56.585Z,14.88
2018-05-17T19:36:25.144Z,15.28
2018-05-17T19:38:52.576Z,15.63
2018-05-17T19:41:19.996Z,15.74
2018-05-17T19:43:47.403Z,15.59
2018-05-17T19:46:14.813Z,15.50
2018-05-17T19:48:42.277Z,15.35
2018-05-17T19:51:09.659Z,15.23
2018-05-17T19:53:37.076Z,15.08
2018-05-17T19:56:04.498Z,15.03
2018-05-17T19:58:31.916Z,15.02
2018-05-17T20:00:59.328Z,14.90
2018-05-17T20:03:26.752Z,14.83
2018-05-17T20:05:54.160Z,14.79
2018-05-17T20:08:21.595Z,14.68
2018-05-17T20:10:49.017Z,14.62
2018-05-17T20:13:16.425Z,14.58
2018-05-17T20:15:43.847Z,14.58
2018-05-17T20:18:11.259Z,14.61
2018-05-17T20:20:38.680Z,14.59
2018-05-17T20:23:06.096Z,14.60
2018-05-17T20:25:33.527Z,14.62
2018-05-17T20:28:00.940Z,14.57
2018-05-17T20:30:28.385Z,14.54
2018-05-17T20:32:55.792Z,14.52
2018-05-17T20:35:23.209Z,14.49
2018-05-17T20:37:50.628Z,14.44
2018-05-17T20:40:18.054Z,14.44
2018-05-17T20:42:45.464Z,14.45
2018-05-17T20:45:12.887Z,14.45
2018-05-17T20:47:40.300Z,14.43
2018-05-17T20:50:07.727Z,14.39
2018-05-17T20:52:35.135Z,14.38
2018-05-17T20:55:02.556Z,14.42
2018-05-17T20:57:29.971Z,14.51
2018-05-17T20:59:57.399Z,14.63
2018-05-17T21:02:24.817Z,14.69
2018-05-17T21:04:52.243Z,14.72
2018-05-17T21:07:19.660Z,14.76
2018-05-17T21:09:47.077Z,14.73
2018-05-17T21:12:14.492Z,14.79
2018-05-17T21:14:41.912Z,14.87
2018-05-17T21:17:09.363Z,14.90
2018-05-17T21:19:36.779Z,14.93
2018-05-17T21:22:04.187Z,14.87
2018-05-17T21:24:31.605Z,14.83
2018-05-17T21:26:59.025Z,14.84
2018-05-17T21:29:26.448Z,14.89
2018-05-17T21:31:53.869Z,14.96
2018-05-17T21:34:21.284Z,14.99
2018-05-17T21:36:48.708Z,15.04
2018-05-17T21:39:16.125Z,15.03
2018-05-17T21:41:43.548Z,15.01
2018-05-17T21:44:10.993Z,14.95
2018-05-17T21:46:38.419Z,14.93
2018-05-17T21:49:05.833Z,14.94
2018-05-17T21:51:33.251Z,15.02
2018-05-17T21:54:00.664Z,14.99
2018-05-17T21:56:28.089Z,14.99
2018-05-17T21:58:55.497Z,15.01
2018-05-17T22:01:22.918Z,15.06
2018-05-17T22:03:50.331Z,15.09
2018-05-17T22:06:17.745Z,15.08
2018-05-17T22:08:45.149Z,15.05
2018-05-17T22:11:12.565Z,15.06
2018-05-17T22:13:39.976Z,14.98
2018-05-17T22:16:07.400Z,14.99
2018-05-17T22:18:34.819Z,14.96
2018-05-17T22:21:02.253Z,14.95
2018-05-17T22:23:29.660Z,15.00
2018-05-17T22:25:57.076Z,15.06
2018-05-17T22:28:24.490Z,15.12
2018-05-17T22:30:51.909Z,15.19
2018-05-17T22:33:19.344Z,15.17
2018-05-17T22:35:46.859Z,15.14
2018-05-17T22:38:14.211Z,15.10
2018-05-17T22:40:41.624Z,15.06
2018-05-17T22:43:09.033Z,15.05
2018-05-17T22:45:36.451Z,15.06
2018-05-17T22:48:03.864Z,15.07
2018-05-17T22:50:31.282Z,15.08
2018-05-17T22:52:58.732Z,15.13
2018-05-17T22:55:26.153Z,15.14
2018-05-17T22:58:05.415Z,15.15
2018-05-17T23:00:32.836Z,15.15
2018-05-17T23:03:00.266Z,15.12
2018-05-17T23:05:27.677Z,15.12
2018-05-17T23:07:55.087Z,15.12
2018-05-17T23:10:22.508Z,15.11
2018-05-17T23:12:49.920Z,15.08
2018-05-17T23:15:17.340Z,15.03
2018-05-17T23:17:44.749Z,15.02
2018-05-17T23:20:12.174Z,15.02
2018-05-17T23:22:39.580Z,15.07
2018-05-17T23:25:08.901Z,15.08
2018-05-17T23:27:36.313Z,14.97
2018-05-17T23:30:03.748Z,15.00
2018-05-17T23:32:31.172Z,14.98
2018-05-17T23:34:58.589Z,14.98
2018-05-17T23:37:26.008Z,14.94
2018-05-17T23:39:53.421Z,14.88
2018-05-17T23:42:20.831Z,14.82
2018-05-17T23:44:48.235Z,14.79
2018-05-17T23:47:15.662Z,14.78
2018-05-17T23:49:43.070Z,14.73
2018-05-17T23:52:10.525Z,14.76
2018-05-17T23:54:37.922Z,14.69
2018-05-17T23:57:05.347Z,14.58
2018-05-17T23:59:32.759Z,14.53
